Time;durP1;ratioP1;P1;durP2;ratioP2;P2;SDS_P1;SDS_P2;PMS_P1;PMS_P2;Temp;Humidity;BMP_temperature;BMP_pressure;BME280_temperature;BME280_humidity;BME280_pressure;Samples;Min_cycle;Max_cycle;Signal;HPM_P1;HPM_P2
2022/07/18 00:01:00;;;;;;;5.88;2.70;;;;;;;14.59;57.91;96856.78;2064089;28;20065;-39
2022/07/18 00:02:02;;;;;;;4.68;2.60;;;;;;;14.59;57.82;96855.94;2063898;28;20054;-36
2022/07/18 00:03:04;;;;;;;4.47;2.65;;;;;;;14.58;58.18;96849.03;2064579;28;20054;-36
2022/07/18 00:04:05;;;;;;;4.05;2.40;;;;;;;14.59;57.84;96848.09;2056380;28;20550;-36
2022/07/18 00:05:07;;;;;;;4.22;2.47;;;;;;;14.55;58.38;96853.50;2064683;28;20401;-34
2022/07/18 00:06:08;;;;;;;3.65;2.38;;;;;;;14.53;58.40;96851.88;2064640;28;20512;-35
2022/07/18 00:07:10;;;;;;;5.53;2.83;;;;;;;14.50;59.02;96849.38;2064600;28;20054;-35
2022/07/18 00:08:12;;;;;;;6.82;2.78;;;;;;;14.47;58.60;96849.53;2064013;28;20046;-35
2022/07/18 00:09:13;;;;;;;7.22;2.78;;;;;;;14.43;58.58;96847.97;2064339;28;20046;-36
2022/07/18 00:10:14;;;;;;;6.03;2.50;;;;;;;14.39;58.93;96842.06;2064512;28;20146;-33
2022/07/18 00:11:15;;;;;;;5.15;2.55;;;;;;;14.37;59.23;96846.50;2056791;28;20054;-37
2022/07/18 00:12:17;;;;;;;4.57;2.65;;;;;;;14.37;61.22;96850.91;2064128;28;20053;-36
2022/07/18 00:13:18;;;;;;;4.60;2.70;;;;;;;14.36;62.69;96846.59;2072265;28;20053;-37
2022/07/18 00:14:20;;;;;;;4.85;3.00;;;;;;;14.34;64.39;96851.91;2072247;28;20511;-38
2022/07/18 00:15:21;;;;;;;5.55;2.78;;;;;;;14.33;64.92;96847.59;2072114;28;20105;-39
2022/07/18 00:16:23;;;;;;;4.75;2.72;;;;;;;14.29;66.05;96844.28;2055801;28;20043;-36
2022/07/18 00:17:25;;;;;;;4.15;2.85;;;;;;;14.27;65.76;96848.75;2049194;28;20054;-35
2022/07/18 00:18:26;;;;;;;5.10;2.92;;;;;;;14.25;65.91;96852.34;2048810;28;20043;-35
2022/07/18 00:19:27;;;;;;;4.13;2.78;;;;;;;14.22;65.42;96855.97;2055915;28;20035;-38
2022/07/18 00:20:29;;;;;;;5.68;2.88;;;;;;;14.20;65.28;96855.19;2064827;28;20050;-35
2022/07/18 00:21:30;;;;;;;4.70;2.60;;;;;;;14.16;64.35;96852.78;2064452;28;20046;-38
2022/07/18 00:22:31;;;;;;;6.35;2.75;;;;;;;14.15;65.28;96851.09;2064465;28;20034;-40
2022/07/18 00:23:33;;;;;;;3.78;2.60;;;;;;;14.10;64.85;96852.16;2064480;28;20054;-34
2022/07/18 00:24:34;;;;;;;4.97;2.90;;;;;;;14.08;64.84;96846.16;2064377;28;20042;-35
2022/07/18 00:25:35;;;;;;;5.90;2.75;;;;;;;14.08;65.20;96856.59;2063869;28;20424;-38
2022/07/18 00:26:37;;;;;;;4.82;2.72;;;;;;;14.05;64.68;96851.53;2072373;28;20049;-34
2022/07/18 00:27:38;;;;;;;5.90;3.10;;;;;;;14.01;65.10;96849.16;2056508;28;20050;-36
2022/07/18 00:28:39;;;;;;;5.25;2.70;;;;;;;13.99;65.38;96850.97;2056145;28;20050;-36
2022/07/18 00:29:40;;;;;;;4.85;3.13;;;;;;;13.94;65.86;96848.56;2072984;28;20065;-35
2022/07/18 00:30:41;;;;;;;4.00;2.70;;;;;;;13.92;65.66;96844.34;2056447;28;20062;-35
2022/07/18 00:31:43;;;;;;;5.28;3.03;;;;;;;13.89;66.04;96856.63;2056086;28;20062;-35
2022/07/18 00:32:44;;;;;;;12.05;3.13;;;;;;;13.86;65.74;96856.75;2039767;29;20048;-37
2022/07/18 00:33:45;;;;;;;4.88;3.10;;;;;;;13.86;66.05;96853.31;2048519;28;20047;-35
2022/07/18 00:34:46;;;;;;;4.50;2.80;;;;;;;13.82;65.89;96854.34;2065153;28;20413;-36
2022/07/18 00:35:47;;;;;;;5.60;2.72;;;;;;;13.82;66.08;96859.56;2064003;28;20050;-35
2022/07/18 00:36:48;;;;;;;4.32;2.60;;;;;;;13.77;66.12;96858.97;2055820;28;20547;-35
2022/07/18 00:37:50;;;;;;;6.80;2.80;;;;;;;13.76;65.99;96862.47;2056132;28;20057;-35
2022/07/18 00:38:51;;;;;;;5.32;2.63;;;;;;;13.74;65.97;96861.69;2063893;28;20046;-36
2022/07/18 00:39:52;;;;;;;5.88;2.75;;;;;;;13.71;66.07;96865.28;2064278;28;20050;-39
2022/07/18 00:40:53;;;;;;;5.55;2.80;;;;;;;13.70;66.39;96857.56;2047737;28;20043;-35
2022/07/18 00:41:54;;;;;;;4.22;2.72;;;;;;;13.67;66.70;96855.94;2063633;28;20512;-36
2022/07/18 00:42:56;;;;;;;5.38;2.85;;;;;;;13.65;66.14;96852.53;2071402;28;20050;-35
2022/07/18 00:43:57;;;;;;;4.50;2.75;;;;;;;13.64;66.32;96856.91;2056734;28;20054;-35
2022/07/18 00:44:58;;;;;;;5.25;2.78;;;;;;;13.63;65.84;96855.22;2056142;28;20058;-37
2022/07/18 00:45:59;;;;;;;5.80;2.70;;;;;;;13.61;66.05;96851.00;2056252;28;20058;-35
2022/07/18 00:47:01;;;;;;;5.47;2.88;;;;;;;13.58;66.53;96848.50;2047676;29;20047;-37
2022/07/18 00:48:09;;;;;;;5.50;2.42;;;;;;;13.56;66.38;96845.97;2056633;28;20512;-36
2022/07/18 00:49:10;;;;;;;7.25;2.85;;;;;;;13.55;65.72;96846.91;2064073;28;20053;-38
2022/07/18 00:50:12;;;;;;;9.38;3.30;;;;;;;13.52;65.59;96843.56;2071784;28;20053;-36
2022/07/18 00:51:13;;;;;;;7.47;2.58;;;;;;;13.52;65.32;96843.56;2047691;29;20054;-35
2022/07/18 00:52:14;;;;;;;4.65;2.75;;;;;;;13.52;65.33;96840.97;2047960;28;20047;-36
2022/07/18 00:53:15;;;;;;;4.38;2.67;;;;;;;13.50;65.29;96846.25;2048189;28;20047;-36
2022/07/18 00:54:17;;;;;;;5.63;3.08;;;;;;;13.50;65.77;96848.88;2047951;28;20055;-39
2022/07/18 00:55:18;;;;;;;6.68;3.20;;;;;;;13.45;66.08;96843.84;2056155;28;20047;-35
2022/07/18 00:56:19;;;;;;;5.00;2.80;;;;;;;13.42;65.75;96844.00;2040322;29;20486;-37
2022/07/18 00:57:21;;;;;;;4.07;2.70;;;;;;;13.39;66.34;96841.53;2055977;28;20050;-34
2022/07/18 00:58:22;;;;;;;6.18;3.08;;;;;;;13.38;66.11;96852.03;2072635;28;20033;-35
2022/07/18 01:01:42;;;;;;;6.20;2.92;;;;;;;13.36;67.14;96859.06;2056229;28;20045;-38
2022/07/18 01:02:04;;;;;;;4.75;3.08;;;;;;;13.25;67.43;96854.28;2064483;28;20504;-36
2022/07/18 01:03:05;;;;;;;5.55;2.85;;;;;;;13.26;67.09;96856.03;2050077;28;20477;-36
2022/07/18 01:04:06;;;;;;;6.57;3.65;;;;;;;13.24;67.07;96857.81;2055590;28;20058;-34
2022/07/18 01:05:08;;;;;;;5.60;3.05;;;;;;;13.23;67.14;96858.72;2048463;28;20056;-38
2022/07/18 01:06:09;;;;;;;7.15;3.28;;;;;;;13.19;66.95;96847.59;2048519;28;20417;-34
2022/07/18 01:07:11;;;;;;;7.57;3.05;;;;;;;13.16;66.94;96849.50;2048397;28;20051;-34
2022/07/18 01:08:12;;;;;;;7.13;3.10;;;;;;;13.11;67.15;96848.84;2055783;28;20039;-38
2022/07/18 01:09:14;;;;;;;5.78;3.10;;;;;;;13.11;67.10;96846.25;2056244;28;20054;-35
2022/07/18 01:10:15;;;;;;;6.30;3.13;;;;;;;13.09;67.49;96848.06;2064215;28;20057;-39
2022/07/18 01:11:16;;;;;;;5.45;3.10;;;;;;;13.05;67.53;96847.34;2056070;28;20043;-36
2022/07/18 01:12:18;;;;;;;5.88;3.20;;;;;;;13.03;67.52;96844.81;2055669;28;20057;-37
2022/07/18 01:13:20;;;;;;;5.28;2.47;;;;;;;13.01;67.42;96851.84;2056428;28;20043;-36
2022/07/18 01:14:21;;;;;;;6.43;3.38;;;;;;;13.03;68.05;96842.19;2055825;28;20872;-35
2022/07/18 01:15:22;;;;;;;4.53;2.72;;;;;;;13.00;67.76;96846.72;2033334;29;20059;-38
2022/07/18 01:16:23;;;;;;;5.38;3.15;;;;;;;12.96;67.71;96851.22;2033046;28;20051;-35
2022/07/18 01:17:24;;;;;;;6.28;3.30;;;;;;;12.96;67.86;96850.34;2040176;28;20052;-37
2022/07/18 01:18:26;;;;;;;4.50;2.67;;;;;;;12.93;67.77;96846.09;2055603;28;20060;-39
2022/07/18 01:19:27;;;;;;;4.38;2.95;;;;;;;12.91;68.70;96842.75;2064482;28;20045;-36
2022/07/18 01:20:30;;;;;;;5.50;2.85;;;;;;;12.90;68.24;96843.63;2071920;28;20069;-37
2022/07/18 01:21:31;;;;;;;6.47;3.22;;;;;;;12.89;68.41;96851.53;2072355;28;20451;-35
2022/07/18 01:22:32;;;;;;;6.68;2.78;;;;;;;12.84;68.72;96849.13;2062972;28;20046;-36
2022/07/18 01:23:34;;;;;;;6.80;2.92;;;;;;;12.85;69.01;96850.81;2056085;28;20061;-35
2022/07/18 01:24:35;;;;;;;6.72;3.10;;;;;;;12.83;69.36;96849.16;2056433;28;20395;-34
2022/07/18 01:25:36;;;;;;;4.90;3.30;;;;;;;12.80;69.48;96847.53;2056539;28;20443;-38
2022/07/18 01:26:37;;;;;;;7.20;3.22;;;;;;;12.79;69.52;96851.91;2056218;28;20051;-35
2022/07/18 01:27:38;;;;;;;6.22;3.10;;;;;;;12.76;69.74;96846.00;2048401;28;20059;-36
2022/07/18 01:28:40;;;;;;;5.88;3.08;;;;;;;12.72;70.05;96853.09;2055672;28;20054;-36
2022/07/18 01:29:42;;;;;;;5.63;3.30;;;;;;;12.69;70.39;96842.78;2063875;28;20046;-35
2022/07/18 01:30:43;;;;;;;6.60;3.30;;;;;;;12.68;70.68;96848.91;2055642;28;20059;-35
2022/07/18 01:31:44;;;;;;;5.68;3.08;;;;;;;12.68;70.55;96850.69;2056859;28;20046;-38
2022/07/18 01:32:45;;;;;;;5.97;3.17;;;;;;;12.67;70.03;96848.97;2057298;28;20042;-34
2022/07/18 01:33:47;;;;;;;5.35;2.90;;;;;;;12.65;70.03;96846.44;2057557;28;20588;-36
2022/07/18 01:34:48;;;;;;;7.55;3.38;;;;;;;12.63;70.40;96840.44;2049678;28;20047;-34
2022/07/18 01:35:49;;;;;;;4.75;2.97;;;;;;;12.64;70.44;96843.88;2042854;28;20048;-35
2022/07/18 01:36:50;;;;;;;4.85;3.03;;;;;;;12.60;70.57;96840.56;2041887;28;20047;-38
2022/07/18 01:37:52;;;;;;;5.22;3.17;;;;;;;12.60;70.79;96839.75;2049533;28;20047;-36
2022/07/18 01:38:53;;;;;;;6.00;3.00;;;;;;;12.59;70.54;96841.50;2050429;28;20043;-34
2022/07/18 01:39:55;;;;;;;4.95;3.20;;;;;;;12.61;70.49;96849.25;2065599;28;20042;-38
2022/07/18 01:40:56;;;;;;;5.65;3.17;;;;;;;12.61;70.88;96849.25;2057722;28;20431;-34
2022/07/18 01:42:00;;;;;;;4.47;3.35;;;;;;;12.59;71.15;96849.31;2057076;28;20057;-36
2022/07/18 01:43:01;;;;;;;5.38;3.63;;;;;;;12.60;71.34;96850.16;2058095;28;20396;-36
2022/07/18 01:44:03;;;;;;;6.57;3.22;;;;;;;12.57;71.23;96849.38;2049867;28;20051;-34
2022/07/18 01:45:04;;;;;;;5.15;3.25;;;;;;;12.57;70.46;96851.13;2065636;28;20542;-36
2022/07/18 01:46:06;;;;;;;6.88;3.45;;;;;;;12.56;70.69;96850.28;2073293;28;20054;-34
2022/07/18 01:47:08;;;;;;;5.30;3.28;;;;;;;12.56;70.09;96847.69;2064639;28;20057;-38
2022/07/18 01:48:09;;;;;;;6.72;3.65;;;;;;;12.57;70.22;96845.91;2057520;28;20062;-38
2022/07/18 01:49:10;;;;;;;5.03;3.20;;;;;;;12.55;69.90;96838.16;2033604;29;20095;-36
2022/07/18 01:50:12;;;;;;;4.32;2.95;;;;;;;12.57;69.48;96844.16;2026473;29;20048;-37
2022/07/18 01:51:13;;;;;;;6.32;3.60;;;;;;;12.58;69.56;96840.63;2049747;28;20051;-33
2022/07/18 01:52:14;;;;;;;5.68;3.20;;;;;;;12.60;69.04;96843.19;2057249;28;20061;-35
2022/07/18 01:53:15;;;;;;;8.15;3.50;;;;;;;12.60;69.43;96839.75;2042188;29;20555;-37
2022/07/18 01:54:20;;;;;;;6.25;3.17;;;;;;;12.63;69.03;96837.00;2041905;28;20047;-34
2022/07/18 01:55:21;;;;;;;5.35;3.22;;;;;;;12.62;68.90;96841.38;2058108;28;20038;-36
2022/07/18 01:56:22;;;;;;;8.65;3.33;;;;;;;12.61;68.96;96841.41;2057477;28;20065;-36
2022/07/18 01:57:23;;;;;;;5.07;2.80;;;;;;;12.65;68.32;96845.59;2057332;28;20051;-34
2022/07/18 01:58:25;;;;;;;5.95;3.13;;;;;;;12.64;68.80;96846.50;2065145;28;20065;-35
2022/07/18 01:59:26;;;;;;;6.20;3.47;;;;;;;12.61;69.97;96844.88;2049279;28;20058;-37
2022/07/18 02:00:27;;;;;;;6.60;3.80;;;;;;;12.62;70.06;96848.34;2048887;28;20042;-35
2022/07/18 02:01:28;;;;;;;5.22;3.35;;;;;;;12.60;69.62;96845.78;2057809;28;20047;-37
2022/07/18 02:02:29;;;;;;;6.28;3.60;;;;;;;12.58;69.80;96847.59;2048620;28;20043;-39
2022/07/18 02:03:31;;;;;;;4.97;3.30;;;;;;;12.56;70.50;96842.47;2049252;28;20046;-36
2022/07/18 02:05:53;;;;;;;6.25;3.60;;;;;;;12.55;70.77;96842.53;2055096;28;20515;-37
2022/07/18 02:06:54;;;;;;;5.07;3.40;;;;;;;12.54;70.68;96840.84;2052086;28;20210;-37
2022/07/18 02:07:55;;;;;;;4.45;3.00;;;;;;;12.55;70.42;96840.75;2041873;29;20413;-36
2022/07/18 02:08:56;;;;;;;6.25;3.45;;;;;;;12.56;69.76;96844.22;2042199;29;20058;-35
2022/07/18 02:09:58;;;;;;;8.85;3.88;;;;;;;12.53;69.83;96845.19;2056923;28;20042;-35
2022/07/18 02:10:59;;;;;;;6.32;3.80;;;;;;;12.53;70.50;96845.19;2073079;28;20562;-35
2022/07/18 02:12:01;;;;;;;4.18;3.42;;;;;;;12.54;70.34;96840.84;2064851;28;20042;-37
2022/07/18 02:13:02;;;;;;;5.80;3.47;;;;;;;12.52;70.42;96838.28;2057020;28;20054;-35
2022/07/18 02:14:04;;;;;;;8.43;3.53;;;;;;;12.49;70.69;96835.81;2065170;28;20451;-36
2022/07/18 02:15:05;;;;;;;5.78;3.42;;;;;;;12.49;71.08;96837.56;2073421;28;20061;-36
2022/07/18 02:16:06;;;;;;;5.35;3.55;;;;;;;12.46;71.85;96841.16;2073298;28;20043;-38
2022/07/18 02:17:08;;;;;;;5.18;4.07;;;;;;;12.45;71.29;96836.00;2072918;28;20050;-36
2022/07/18 02:18:09;;;;;;;6.97;3.65;;;;;;;12.43;71.31;96837.81;2057922;28;20051;-37
2022/07/18 02:19:10;;;;;;;7.05;3.75;;;;;;;12.42;71.29;96839.56;2049341;29;20055;-36
2022/07/18 02:20:12;;;;;;;6.05;3.90;;;;;;;12.39;71.66;96837.09;2057165;28;20043;-35
2022/07/18 02:21:13;;;;;;;6.10;3.40;;;;;;;12.38;71.62;96840.63;2049532;28;20549;-36
2022/07/18 02:22:15;;;;;;;5.97;3.70;;;;;;;12.36;72.53;96845.03;2049323;28;20051;-38
2022/07/18 02:23:16;;;;;;;5.53;3.88;;;;;;;12.32;72.64;96849.53;2049583;28;20035;-35
2022/07/18 02:24:17;;;;;;;6.07;3.72;;;;;;;12.30;72.18;96847.91;2049558;28;20543;-38
2022/07/18 02:25:18;;;;;;;8.02;4.10;;;;;;;12.30;72.67;96842.69;2057170;28;20464;-36
2022/07/18 02:26:19;;;;;;;7.13;3.55;;;;;;;12.29;72.24;96854.84;2056421;28;20055;-38
2022/07/18 02:27:20;;;;;;;8.45;4.00;;;;;;;12.30;72.39;96847.91;2065007;28;20516;-36
2022/07/18 02:28:22;;;;;;;11.45;4.07;;;;;;;12.31;72.35;96854.78;2064601;28;20054;-34
2022/07/18 02:29:23;;;;;;;6.00;3.72;;;;;;;12.32;71.82;96854.75;2049893;28;20050;-38
2022/07/18 02:30:24;;;;;;;4.88;3.78;;;;;;;12.30;72.11;96855.72;2056687;28;20050;-36
2022/07/18 02:31:25;;;;;;;5.28;3.85;;;;;;;12.30;71.59;96859.16;2056860;28;20055;-39
2022/07/18 02:32:26;;;;;;;5.72;3.92;;;;;;;12.32;72.16;96866.91;2057095;28;20039;-36
2022/07/18 02:33:28;;;;;;;7.65;3.67;;;;;;;12.30;71.19;96860.94;2057158;28;20043;-35
2022/07/18 02:34:29;;;;;;;7.05;3.97;;;;;;;12.28;70.71;96858.38;2064529;28;20049;-36
2022/07/18 02:35:30;;;;;;;6.78;3.78;;;;;;;12.26;71.01;96864.56;2073456;28;20045;-35
2022/07/18 02:36:31;;;;;;;6.72;3.72;;;;;;;12.26;71.24;96860.19;2073108;28;20050;-39
2022/07/18 02:37:32;;;;;;;7.50;4.13;;;;;;;12.23;72.09;96856.88;2064798;28;20057;-36
2022/07/18 02:38:33;;;;;;;7.88;4.30;;;;;;;12.21;71.83;96858.69;2057207;28;20457;-36
2022/07/18 02:39:35;;;;;;;10.05;3.97;;;;;;;12.18;71.33;96856.19;2049548;28;20524;-35
2022/07/18 02:40:36;;;;;;;6.28;3.90;;;;;;;12.14;71.57;96853.72;2049210;28;20044;-36
2022/07/18 02:41:37;;;;;;;6.13;3.92;;;;;;;12.07;72.05;96849.66;2048796;28;20421;-34
2022/07/18 02:42:38;;;;;;;9.25;4.10;;;;;;;12.09;72.39;96855.66;2048929;28;20421;-35
2022/07/18 02:43:39;;;;;;;5.72;4.20;;;;;;;12.08;72.83;96855.69;2065132;28;20444;-38
2022/07/18 02:44:41;;;;;;;5.65;4.25;;;;;;;12.06;72.86;96855.78;2065367;28;20058;-36
2022/07/18 02:45:42;;;;;;;5.68;3.80;;;;;;;12.07;72.16;96854.03;2049308;29;20058;-37
2022/07/18 02:46:43;;;;;;;5.82;3.72;;;;;;;12.04;72.80;96852.38;2056997;28;20046;-35
2022/07/18 02:47:44;;;;;;;8.25;3.97;;;;;;;12.02;73.33;96853.34;2064755;28;20054;-37
2022/07/18 02:48:46;;;;;;;5.47;3.75;;;;;;;12.01;72.93;96856.88;2064650;28;20046;-39
2022/07/18 02:49:47;;;;;;;4.82;3.97;;;;;;;12.01;73.01;96859.47;2072521;28;20069;-36
2022/07/18 02:50:48;;;;;;;7.25;4.38;;;;;;;11.96;73.52;96857.03;2072944;28;20053;-38
2022/07/18 02:51:49;;;;;;;6.63;4.32;;;;;;;11.95;73.28;96863.16;2073053;28;20061;-36
2022/07/18 02:52:50;;;;;;;5.45;4.30;;;;;;;11.90;73.60;96854.69;2064850;28;20543;-36
2022/07/18 02:53:51;;;;;;;7.88;4.18;;;;;;;11.88;73.14;96851.28;2064045;28;20061;-35
2022/07/18 02:54:52;;;;;;;7.57;4.63;;;;;;;11.91;73.10;96857.22;2072732;28;20061;-36
2022/07/18 02:55:54;;;;;;;5.88;4.45;;;;;;;11.89;73.22;96846.03;2065447;28;20038;-36
2022/07/18 02:56:55;;;;;;;9.98;4.45;;;;;;;11.88;73.12;96851.28;2057284;28;20054;-36
2022/07/18 02:57:56;;;;;;;7.22;4.32;;;;;;;11.87;73.93;96849.59;2056660;28;20051;-37
2022/07/18 02:58:58;;;;;;;9.18;4.60;;;;;;;11.84;73.76;96849.66;2056489;28;20400;-36
2022/07/18 02:59:59;;;;;;;7.63;4.40;;;;;;;11.83;73.71;96855.78;2057313;28;20051;-36
2022/07/18 03:01:00;;;;;;;9.27;4.30;;;;;;;11.83;74.21;96854.03;2056519;28;20038;-38
2022/07/18 03:02:02;;;;;;;6.40;4.40;;;;;;;11.83;74.70;96848.81;2064880;28;20058;-36
2022/07/18 03:03:04;;;;;;;7.43;4.47;;;;;;;11.83;74.94;96847.97;2057424;28;20054;-34
2022/07/18 03:04:05;;;;;;;8.40;4.10;;;;;;;11.81;74.25;96850.63;2048536;28;20051;-36
2022/07/18 03:05:06;;;;;;;7.65;4.53;;;;;;;11.79;75.21;96852.47;2064870;28;20042;-34
2022/07/18 03:06:07;;;;;;;7.22;3.85;;;;;;;11.77;73.62;96856.88;2064411;28;20063;-35
2022/07/18 03:07:09;;;;;;;8.27;4.63;;;;;;;11.79;73.35;96851.63;2065033;28;20042;-37
2022/07/18 03:08:10;;;;;;;7.35;4.47;;;;;;;11.79;73.38;96859.44;2056895;28;20539;-35
2022/07/18 03:09:11;;;;;;;8.80;4.40;;;;;;;11.79;74.03;96852.47;2049156;29;20539;-37
2022/07/18 03:10:12;;;;;;;8.75;4.55;;;;;;;11.77;74.14;96856.88;2056760;28;20055;-33
2022/07/18 03:11:13;;;;;;;7.57;4.13;;;;;;;11.77;74.05;96861.25;2056855;28;20050;-34
2022/07/18 03:12:14;;;;;;;7.18;4.05;;;;;;;11.78;73.61;96862.91;2064120;28;20223;-34
2022/07/18 03:13:16;;;;;;;5.22;4.32;;;;;;;11.77;73.99;96863.84;2065025;28;20054;-35
2022/07/18 03:14:17;;;;;;;7.70;4.38;;;;;;;11.76;73.00;96864.72;2041443;29;20055;-39
2022/07/18 03:15:18;;;;;;;7.15;4.38;;;;;;;11.77;73.28;96864.69;2041048;29;20536;-36
2022/07/18 03:16:19;;;;;;;6.45;4.35;;;;;;;11.75;73.78;96863.88;2049025;28;20058;-36
2022/07/18 03:17:20;;;;;;;5.72;4.32;;;;;;;11.76;74.63;96862.13;2064848;28;20042;-34
2022/07/18 03:18:22;;;;;;;6.97;4.65;;;;;;;11.74;74.57;96862.19;2057097;28;20437;-35
2022/07/18 03:19:23;;;;;;;6.03;4.20;;;;;;;11.74;73.79;96862.19;2057180;28;20545;-37
2022/07/18 03:20:24;;;;;;;6.05;4.72;;;;;;;11.76;74.19;96867.34;2064608;28;20555;-36
2022/07/18 03:21:26;;;;;;;6.50;4.47;;;;;;;11.75;73.96;96860.44;2064810;28;20038;-35
2022/07/18 03:22:27;;;;;;;5.88;4.53;;;;;;;11.76;73.52;96857.78;2056176;28;20504;-35
2022/07/18 03:23:28;;;;;;;6.30;4.70;;;;;;;11.81;73.20;96863.63;2057049;28;20053;-36
2022/07/18 03:24:30;;;;;;;9.15;4.75;;;;;;;11.85;72.08;96859.19;2064678;28;20042;-36
2022/07/18 03:25:31;;;;;;;7.20;4.53;;;;;;;11.84;72.82;96853.16;2064644;28;20042;-34
2022/07/18 03:26:32;;;;;;;8.07;4.20;;;;;;;11.87;71.80;96860.03;2056380;28;20054;-34
2022/07/18 03:28:08;;;;;;;6.55;4.30;;;;;;;11.87;72.83;96860.03;2056996;28;20444;-39
2022/07/18 03:29:10;;;;;;;7.75;4.68;;;;;;;11.91;71.98;96859.81;2056560;28;20398;-39
2022/07/18 03:30:11;;;;;;;6.13;4.20;;;;;;;11.95;72.02;96857.97;2049055;29;20508;-40
2022/07/18 03:31:13;;;;;;;7.15;4.28;;;;;;;11.97;71.52;96855.28;2048928;28;20429;-39
2022/07/18 03:32:14;;;;;;;8.05;4.13;;;;;;;11.97;71.63;96850.91;2047942;28;20447;-40
2022/07/18 03:33:16;;;;;;;6.50;4.18;;;;;;;11.98;72.09;96849.19;2049299;28;20046;-44
2022/07/18 03:34:17;;;;;;;7.20;4.05;;;;;;;11.99;71.71;96853.47;2049021;29;20051;-40
2022/07/18 03:35:18;;;;;;;6.57;4.47;;;;;;;11.95;71.12;96852.75;2040837;29;20055;-41
2022/07/18 03:36:19;;;;;;;5.63;4.25;;;;;;;11.94;71.75;96850.19;2048760;29;20110;-40
2022/07/18 03:37:20;;;;;;;5.93;4.30;;;;;;;11.95;71.98;96852.75;2056530;28;20039;-41
2022/07/18 03:38:22;;;;;;;8.18;5.03;;;;;;;12.00;71.47;96855.16;2040710;29;20051;-39
2022/07/18 03:39:23;;;;;;;6.53;4.20;;;;;;;11.97;72.30;96856.13;2049119;29;20043;-40
2022/07/18 03:40:24;;;;;;;7.22;4.57;;;;;;;11.96;71.51;96862.25;2048463;29;20054;-40
2022/07/18 03:41:25;;;;;;;5.07;4.45;;;;;;;11.96;71.33;96858.81;2049385;28;20034;-39
2022/07/18 03:42:27;;;;;;;9.23;4.80;;;;;;;11.93;72.27;96859.78;2048367;29;20536;-42
2022/07/18 03:43:28;;;;;;;8.50;4.07;;;;;;;11.91;71.48;96865.03;2040880;29;20047;-40
2022/07/18 03:44:29;;;;;;;8.70;4.50;;;;;;;11.90;72.74;96865.94;2040455;29;20051;-39
2022/07/18 03:45:30;;;;;;;7.32;4.60;;;;;;;11.90;72.61;96855.53;2041071;29;20039;-41
2022/07/18 03:46:31;;;;;;;6.50;4.35;;;;;;;11.87;72.61;96867.81;2032794;29;20048;-39
2022/07/18 03:47:33;;;;;;;10.52;4.60;;;;;;;11.87;72.75;96865.22;2040573;29;20040;-41
2022/07/18 03:48:34;;;;;;;7.20;4.60;;;;;;;11.86;72.62;96863.50;2056551;28;20143;-41
2022/07/18 03:49:35;;;;;;;9.43;4.78;;;;;;;11.87;72.81;96866.06;2048568;29;20501;-39
2022/07/18 03:50:37;;;;;;;6.10;4.70;;;;;;;11.88;72.28;96864.31;2048284;29;20058;-42
2022/07/18 03:51:38;;;;;;;14.25;4.97;;;;;;;11.91;72.99;96864.19;2048535;29;20043;-39
2022/07/18 03:52:39;;;;;;;7.95;5.25;;;;;;;11.90;72.71;96870.31;2048556;29;20054;-39
2022/07/18 03:53:40;;;;;;;8.27;5.30;;;;;;;11.90;72.64;96873.75;2048803;29;20043;-38
2022/07/18 03:54:41;;;;;;;10.05;4.70;;;;;;;11.90;72.55;96870.31;2040816;29;20067;-40
2022/07/18 03:55:44;;;;;;;7.13;5.00;;;;;;;11.91;73.35;96872.00;2033383;29;20055;-41
2022/07/18 03:56:45;;;;;;;6.82;5.00;;;;;;;11.92;72.92;96873.66;2041385;28;20052;-43
2022/07/18 03:57:46;;;;;;;7.63;5.30;;;;;;;11.91;73.14;96878.03;2055966;28;20042;-40
2022/07/18 03:58:47;;;;;;;10.85;5.28;;;;;;;11.93;74.04;96877.16;2057296;28;20045;-42
2022/07/18 03:59:48;;;;;;;8.63;5.47;;;;;;;11.90;73.55;96875.50;2049226;29;20532;-38
2022/07/18 04:00:50;;;;;;;7.72;5.20;;;;;;;11.92;72.91;96878.88;2040588;29;20051;-40
2022/07/18 04:01:51;;;;;;;8.63;5.30;;;;;;;11.96;73.82;96877.88;2040269;29;20449;-42
2022/07/18 04:02:52;;;;;;;7.93;5.65;;;;;;;11.97;73.58;96878.72;2040667;29;20054;-38
2022/07/18 04:03:53;;;;;;;8.70;4.80;;;;;;;11.98;72.55;96873.47;2032915;29;20055;-42
2022/07/18 04:04:55;;;;;;;8.43;5.22;;;;;;;12.02;72.82;96874.19;2033445;29;20394;-40
2022/07/18 04:05:56;;;;;;;9.18;5.30;;;;;;;12.03;72.00;96875.84;2048768;28;20051;-41
2022/07/18 04:06:59;;;;;;;6.75;4.90;;;;;;;12.04;72.87;96873.22;2048495;29;20310;-39
2022/07/18 04:08:00;;;;;;;8.57;5.00;;;;;;;12.06;73.14;96871.41;2048628;28;20058;-39
2022/07/18 04:09:01;;;;;;;9.23;5.28;;;;;;;12.07;72.26;96875.69;2040567;29;20043;-42
2022/07/18 04:10:04;;;;;;;7.95;5.53;;;;;;;12.09;72.25;96875.66;2040418;29;20039;-40
2022/07/18 04:11:05;;;;;;;6.85;5.35;;;;;;;12.11;71.59;96874.69;2047896;29;20054;-39
2022/07/18 04:12:06;;;;;;;7.50;5.50;;;;;;;12.15;72.13;96872.78;2032773;29;20051;-38
2022/07/18 04:13:08;;;;;;;7.68;4.95;;;;;;;12.17;71.25;96877.94;2032890;29;20079;-42
2022/07/18 04:14:09;;;;;;;7.10;5.10;;;;;;;12.21;71.49;96875.13;2048518;28;20051;-39
2022/07/18 04:15:10;;;;;;;6.78;4.75;;;;;;;12.23;71.22;96872.50;2040762;29;20409;-41
2022/07/18 04:16:11;;;;;;;10.43;5.32;;;;;;;12.27;71.29;96879.25;2040683;29;20528;-40
2022/07/18 04:17:13;;;;;;;9.77;5.70;;;;;;;12.31;71.61;96873.88;2056662;28;20054;-40
2022/07/18 04:18:14;;;;;;;11.43;5.30;;;;;;;12.33;71.16;96873.81;2049120;28;20150;-42
2022/07/18 04:19:16;;;;;;;9.23;5.80;;;;;;;12.39;70.79;96877.94;2040608;29;20051;-40
2022/07/18 04:20:19;;;;;;;8.10;5.68;;;;;;;12.45;71.18;96880.28;2040285;29;20066;-43
2022/07/18 04:21:20;;;;;;;7.30;5.45;;;;;;;12.44;71.18;96876.84;2048555;29;20050;-40
2022/07/18 04:22:21;;;;;;;12.18;5.88;;;;;;;12.49;70.83;96879.25;2040235;29;20418;-39
2022/07/18 04:23:23;;;;;;;10.63;5.82;;;;;;;12.51;70.81;96882.63;2045946;29;20440;-38
2022/07/18 04:24:24;;;;;;;8.65;5.20;;;;;;;12.58;70.17;96884.91;2040540;29;20522;-42
2022/07/18 04:25:26;;;;;;;8.57;5.43;;;;;;;12.67;69.62;96872.41;2040435;29;20047;-40
2022/07/18 04:26:28;;;;;;;10.90;5.22;;;;;;;12.70;69.80;96886.19;2041559;29;20876;-39
2022/07/18 04:27:29;;;;;;;10.90;5.82;;;;;;;12.71;69.72;96876.63;2040385;29;20051;-38
2022/07/18 04:28:30;;;;;;;7.15;5.63;;;;;;;12.72;69.78;96881.78;2024247;29;20051;-41
2022/07/18 04:29:31;;;;;;;9.30;5.57;;;;;;;12.76;69.37;96880.72;2035235;29;20044;-39
2022/07/18 04:30:33;;;;;;;12.07;5.15;;;;;;;12.81;69.09;96880.53;2048985;28;20047;-40
2022/07/18 04:31:34;;;;;;;9.00;5.85;;;;;;;12.83;68.51;96881.31;2048483;29;20043;-40
2022/07/18 04:32:35;;;;;;;7.57;5.45;;;;;;;12.89;68.05;96880.22;2047644;29;20126;-41
2022/07/18 04:33:36;;;;;;;10.68;5.43;;;;;;;12.94;68.28;96880.88;2048456;28;20054;-39
2022/07/18 04:34:37;;;;;;;9.02;5.70;;;;;;;12.97;68.51;96876.38;2048796;28;20046;-38
2022/07/18 04:35:39;;;;;;;10.15;5.70;;;;;;;13.05;67.88;96877.81;2040402;29;20051;-44
2022/07/18 04:36:40;;;;;;;8.30;5.55;;;;;;;13.07;67.66;96882.03;2032488;29;20048;-43
2022/07/18 04:37:42;;;;;;;10.07;5.50;;;;;;;13.09;67.66;96876.75;2032832;29;20047;-39
2022/07/18 04:38:43;;;;;;;8.60;5.38;;;;;;;13.15;67.79;96873.84;2040667;29;20078;-41
2022/07/18 04:39:44;;;;;;;8.52;5.20;;;;;;;13.18;67.33;96871.16;2047953;29;20055;-39
2022/07/18 04:40:46;;;;;;;7.63;5.60;;;;;;;13.21;67.21;96879.66;2048361;28;20050;-40
2022/07/18 04:41:47;;;;;;;8.65;5.50;;;;;;;13.24;66.22;96879.53;2048123;29;20066;-43
2022/07/18 04:42:48;;;;;;;11.75;5.90;;;;;;;13.23;66.12;96871.75;2040515;29;20051;-39
2022/07/18 04:43:51;;;;;;;8.13;5.45;;;;;;;13.29;66.25;96879.38;2032445;29;20052;-37
2022/07/18 04:44:53;;;;;;;8.25;5.53;;;;;;;13.32;65.97;96873.19;2040863;29;20111;-41
2022/07/18 04:45:54;;;;;;;11.40;5.75;;;;;;;13.33;66.02;96878.31;2048713;29;20039;-41
2022/07/18 04:46:55;;;;;;;6.82;5.50;;;;;;;13.36;65.71;96883.38;2039834;29;20050;-41
2022/07/18 04:47:56;;;;;;;10.32;5.60;;;;;;;13.43;65.89;96877.00;2039945;29;20427;-41
2022/07/18 04:48:58;;;;;;;8.55;5.35;;;;;;;13.47;65.81;96882.91;2048280;28;20058;-41
2022/07/18 04:49:59;;;;;;;8.27;5.38;;;;;;;13.53;65.35;96874.00;2047405;29;20051;-40
2022/07/18 04:51:00;;;;;;;7.60;5.18;;;;;;;13.54;65.55;96870.44;2047453;28;20070;-40
2022/07/18 04:52:01;;;;;;;9.55;5.88;;;;;;;13.58;65.49;96872.00;2047384;29;20047;-42